createdAt,value
2017-10-14T00:01:18.153Z,11.97
2017-10-14T00:03:46.445Z,11.60
2017-10-14T00:06:14.713Z,17.30
2017-10-14T00:08:43.181Z,21.73
2017-10-14T00:11:11.445Z,14.83
2017-10-14T00:13:39.765Z,14.23
2017-10-14T00:16:08.029Z,13.07
2017-10-14T00:18:37.813Z,12.20
2017-10-14T00:21:06.105Z,12.87
2017-10-14T00:23:34.386Z,14.10
2017-10-14T00:26:02.681Z,12.93
2017-10-14T00:28:31.043Z,15.40
2017-10-14T00:30:59.344Z,15.97
2017-10-14T00:33:27.620Z,13.33
2017-10-14T00:35:55.973Z,14.83
2017-10-14T00:38:24.349Z,18.27
2017-10-14T00:40:52.630Z,15.53
2017-10-14T00:43:20.933Z,16.17
2017-10-14T00:45:49.968Z,17.43
2017-10-14T00:48:18.262Z,16.37
2017-10-14T00:50:46.529Z,13.97
2017-10-14T00:53:14.940Z,15.57
2017-10-14T00:55:43.198Z,13.60
2017-10-14T00:58:11.592Z,16.20
2017-10-14T01:00:39.974Z,13.90
2017-10-14T01:03:08.351Z,12.07
2017-10-14T01:05:36.629Z,12.00
2017-10-14T01:08:04.895Z,20.80
2017-10-14T01:10:33.193Z,14.40
2017-10-14T01:13:01.466Z,19.43
2017-10-14T01:15:29.756Z,14.23
2017-10-14T01:17:58.122Z,14.83
2017-10-14T01:20:26.412Z,16.50
2017-10-14T01:22:54.761Z,20.73
2017-10-14T01:25:23.153Z,24.00
2017-10-14T01:27:51.427Z,17.17
2017-10-14T01:30:19.701Z,14.80
2017-10-14T01:32:48.085Z,19.17
2017-10-14T01:35:16.369Z,14.83
2017-10-14T01:37:44.741Z,19.03
2017-10-14T01:40:13.014Z,15.77
2017-10-14T01:42:41.305Z,18.77
2017-10-14T01:45:09.670Z,16.50
2017-10-14T01:47:37.982Z,17.23
2017-10-14T01:50:07.017Z,19.47
2017-10-14T01:52:35.292Z,21.10
2017-10-14T01:55:03.585Z,15.10
2017-10-14T01:57:31.881Z,18.60
2017-10-14T02:00:00.165Z,16.73
2017-10-14T02:02:28.534Z,19.90
2017-10-14T02:04:56.836Z,18.93
2017-10-14T02:07:25.194Z,20.40
2017-10-14T02:09:53.482Z,16.53
2017-10-14T02:12:21.854Z,18.37
2017-10-14T02:14:50.226Z,22.43
2017-10-14T02:17:18.602Z,18.07
2017-10-14T02:19:46.864Z,18.00
2017-10-14T02:22:15.154Z,17.00
2017-10-14T02:24:43.540Z,17.00
2017-10-14T02:27:11.833Z,16.03
2017-10-14T02:29:40.108Z,15.97
2017-10-14T02:32:08.404Z,17.57
2017-10-14T02:34:37.450Z,18.50
2017-10-14T02:37:05.767Z,15.40
2017-10-14T02:39:34.803Z,18.50
2017-10-14T02:42:03.077Z,15.83
2017-10-14T02:44:31.376Z,18.70
2017-10-14T02:46:59.675Z,16.93
2017-10-14T02:49:27.958Z,20.77
2017-10-14T02:51:56.230Z,14.70
2017-10-14T02:54:24.613Z,19.90
2017-10-14T02:56:52.982Z,15.77
2017-10-14T02:59:21.288Z,17.60
2017-10-14T03:01:50.352Z,17.40
2017-10-14T03:04:18.638Z,18.77
2017-10-14T03:06:46.948Z,18.37
2017-10-14T03:09:16.013Z,16.30
2017-10-14T03:11:44.385Z,16.83
2017-10-14T03:14:12.759Z,15.47
2017-10-14T03:16:41.040Z,15.03
2017-10-14T03:19:09.419Z,13.87
2017-10-14T03:21:37.734Z,15.50
2017-10-14T03:24:06.797Z,16.93
2017-10-14T03:26:35.066Z,15.00
2017-10-14T03:29:03.357Z,14.07
2017-10-14T03:31:31.625Z,12.83
2017-10-14T03:34:00.009Z,12.00
2017-10-14T03:36:28.277Z,10.60
2017-10-14T03:38:56.661Z,12.27
2017-10-14T03:41:24.942Z,12.40
2017-10-14T03:43:54.248Z,14.17
2017-10-14T03:46:22.513Z,12.67
2017-10-14T03:48:50.892Z,16.30
2017-10-14T03:51:19.174Z,13.23
2017-10-14T03:53:47.446Z,11.00
2017-10-14T03:56:15.742Z,15.03
2017-10-14T03:58:44.034Z,15.33
2017-10-14T04:01:13.090Z,11.90
2017-10-14T04:03:41.356Z,12.83
2017-10-14T04:06:09.641Z,14.03
2017-10-14T04:08:37.913Z,11.77
2017-10-14T04:11:06.224Z,13.73
2017-10-14T04:13:34.585Z,11.37
2017-10-14T04:16:02.866Z,12.50
2017-10-14T04:18:31.241Z,14.10
2017-10-14T04:20:59.524Z,12.27
2017-10-14T04:23:27.814Z,13.40
2017-10-14T04:25:56.171Z,12.80
2017-10-14T04:28:24.555Z,15.73
2017-10-14T04:30:52.820Z,11.87
2017-10-14T04:33:21.208Z,12.30
2017-10-14T04:35:49.485Z,18.23
2017-10-14T04:38:17.762Z,11.57
2017-10-14T04:40:46.146Z,12.83
2017-10-14T04:43:14.427Z,14.60
2017-10-14T04:45:44.239Z,13.97
2017-10-14T04:48:12.616Z,16.30
2017-10-14T04:50:40.913Z,13.67
2017-10-14T04:53:09.186Z,11.87
2017-10-14T04:55:37.548Z,20.13
2017-10-14T04:58:05.825Z,11.93
2017-10-14T05:00:34.114Z,10.90
2017-10-14T05:03:02.409Z,12.20
2017-10-14T05:05:31.468Z,14.33
2017-10-14T05:07:59.757Z,12.40
2017-10-14T05:10:28.026Z,13.90
2017-10-14T05:12:56.329Z,10.77
2017-10-14T05:15:24.617Z,11.83
2017-10-14T05:17:52.921Z,12.80
2017-10-14T05:20:21.185Z,11.40
2017-10-14T05:22:49.513Z,9.73
2017-10-14T05:25:17.895Z,10.00
2017-10-14T05:27:46.283Z,13.63
2017-10-14T05:30:14.556Z,13.43
2017-10-14T05:32:42.829Z,12.67
2017-10-14T05:35:11.118Z,11.43
2017-10-14T05:37:39.384Z,14.83
2017-10-14T05:40:07.718Z,12.23
2017-10-14T05:42:35.987Z,12.60
2017-10-14T05:45:04.312Z,14.40
2017-10-14T05:47:32.692Z,14.93
2017-10-14T05:50:00.964Z,16.10
2017-10-14T05:52:29.248Z,15.80
2017-10-14T05:54:57.517Z,12.47
2017-10-14T05:57:25.865Z,14.60
2017-10-14T05:59:54.196Z,11.97
2017-10-14T06:02:22.509Z,14.23
2017-10-14T06:04:50.789Z,13.90
2017-10-14T06:07:19.115Z,14.70
2017-10-14T06:09:47.413Z,11.80
2017-10-14T06:12:15.696Z,11.40
2017-10-14T06:14:44.062Z,10.73
2017-10-14T06:17:12.413Z,11.30
2017-10-14T06:19:40.721Z,14.13
2017-10-14T06:22:09.209Z,14.50
2017-10-14T06:24:37.502Z,14.00
2017-10-14T06:27:06.528Z,11.67
2017-10-14T06:29:34.830Z,11.40
2017-10-14T06:32:03.090Z,11.80
2017-10-14T06:34:31.351Z,11.10
2017-10-14T06:36:59.674Z,13.97
2017-10-14T06:39:27.941Z,15.40
2017-10-14T06:41:56.321Z,11.30
2017-10-14T06:44:24.594Z,15.10
2017-10-14T06:46:52.895Z,11.67
2017-10-14T06:49:21.167Z,10.90
2017-10-14T06:51:49.530Z,16.83
2017-10-14T06:54:17.801Z,11.07
2017-10-14T06:56:46.188Z,12.83
2017-10-14T06:59:14.459Z,12.17
2017-10-14T07:01:42.750Z,15.30
2017-10-14T07:04:11.032Z,12.67
2017-10-14T07:06:39.290Z,9.80
2017-10-14T07:09:07.777Z,11.47
2017-10-14T07:11:36.788Z,13.53
2017-10-14T07:14:05.062Z,11.40
2017-10-14T07:16:33.369Z,10.90
2017-10-14T07:19:02.472Z,12.93
2017-10-14T07:21:31.531Z,10.47
2017-10-14T07:23:59.813Z,15.43
2017-10-14T07:26:28.089Z,13.13
2017-10-14T07:28:56.367Z,10.93
2017-10-14T07:31:24.734Z,10.10
2017-10-14T07:33:53.121Z,11.00
2017-10-14T07:36:21.488Z,9.87
2017-10-14T07:38:49.835Z,10.40
2017-10-14T07:41:18.192Z,13.80
2017-10-14T07:43:46.472Z,13.53
2017-10-14T07:46:14.735Z,12.00
2017-10-14T07:48:43.017Z,11.07
2017-10-14T07:51:11.320Z,10.53
2017-10-14T07:53:39.694Z,10.10
2017-10-14T07:56:08.719Z,9.03
2017-10-14T07:58:37.127Z,9.87
2017-10-14T08:01:05.376Z,7.10
2017-10-14T08:03:33.660Z,10.00
2017-10-14T08:06:01.921Z,7.13
2017-10-14T08:08:30.211Z,9.53
2017-10-14T08:10:58.486Z,8.10
2017-10-14T08:13:26.769Z,7.67
2017-10-14T08:15:55.025Z,8.40
2017-10-14T08:18:23.404Z,9.00
2017-10-14T08:20:51.873Z,12.33
2017-10-14T08:23:20.896Z,8.67
2017-10-14T08:25:49.177Z,9.20
2017-10-14T08:28:17.444Z,8.40
2017-10-14T08:30:45.850Z,7.33
2017-10-14T08:33:14.109Z,8.13
2017-10-14T08:35:42.386Z,6.07
2017-10-14T08:38:10.660Z,7.93
2017-10-14T08:40:38.929Z,6.43
2017-10-14T08:43:08.077Z,7.73
2017-10-14T08:45:37.160Z,9.37
2017-10-14T08:48:05.435Z,9.20
2017-10-14T08:50:33.798Z,8.73
2017-10-14T08:53:02.213Z,11.13
2017-10-14T08:55:30.486Z,9.17
2017-10-14T08:57:58.841Z,8.70
2017-10-14T09:00:27.120Z,8.03
2017-10-14T09:02:55.406Z,7.77
2017-10-14T09:05:23.710Z,11.60
2017-10-14T09:07:52.030Z,9.00
2017-10-14T09:10:21.090Z,8.63
2017-10-14T09:12:49.378Z,7.23
2017-10-14T09:15:17.645Z,12.47
2017-10-14T09:17:45.933Z,10.33
2017-10-14T09:20:14.200Z,10.97
2017-10-14T09:22:42.486Z,10.60
2017-10-14T09:25:10.765Z,12.93
2017-10-14T09:27:39.822Z,8.13
2017-10-14T09:30:08.085Z,13.03
2017-10-14T09:32:36.361Z,10.20
2017-10-14T09:35:04.657Z,9.23
2017-10-14T09:37:32.922Z,9.73
2017-10-14T09:40:01.336Z,8.43
2017-10-14T09:42:29.606Z,9.63
2017-10-14T09:44:57.893Z,10.67
2017-10-14T09:47:26.165Z,7.93
2017-10-14T09:49:54.544Z,8.37
2017-10-14T09:52:22.801Z,9.53
2017-10-14T09:54:51.088Z,9.43
2017-10-14T09:57:19.361Z,9.33
2017-10-14T09:59:47.650Z,10.93
2017-10-14T10:02:15.917Z,8.50
2017-10-14T10:04:44.204Z,7.67
2017-10-14T10:07:12.485Z,11.60
2017-10-14T10:09:40.780Z,10.43
2017-10-14T10:12:09.034Z,9.30
2017-10-14T10:14:37.323Z,11.60
2017-10-14T10:17:05.605Z,13.17
2017-10-14T10:19:33.886Z,8.90
2017-10-14T10:22:02.249Z,11.20
2017-10-14T10:24:30.549Z,10.63
2017-10-14T10:26:58.804Z,9.50
2017-10-14T10:29:27.086Z,12.13
2017-10-14T10:31:55.410Z,11.43
2017-10-14T10:34:24.554Z,12.10
2017-10-14T10:36:52.861Z,12.13
2017-10-14T10:39:22.037Z,11.57
2017-10-14T10:41:50.407Z,10.97
2017-10-14T10:44:18.671Z,11.27
2017-10-14T10:46:46.964Z,13.03
2017-10-14T10:49:15.245Z,11.73
2017-10-14T10:51:44.311Z,16.70
2017-10-14T10:54:12.569Z,11.47
2017-10-14T10:56:41.406Z,12.07
2017-10-14T10:59:10.466Z,13.10
2017-10-14T11:01:38.832Z,10.27
2017-10-14T11:04:07.151Z,10.30
2017-10-14T11:06:36.200Z,13.83
2017-10-14T11:09:04.460Z,12.30
2017-10-14T11:11:32.730Z,14.10
2017-10-14T11:14:01.023Z,14.40
2017-10-14T11:16:29.392Z,15.33
2017-10-14T11:18:57.703Z,13.60
2017-10-14T11:21:26.760Z,13.83
2017-10-14T11:23:55.065Z,15.87
2017-10-14T11:26:24.115Z,17.40
2017-10-14T11:28:52.515Z,16.93
2017-10-14T11:31:21.600Z,14.27
2017-10-14T11:33:49.990Z,15.27
2017-10-14T11:36:18.362Z,11.83
2017-10-14T11:38:46.663Z,13.37
2017-10-14T11:41:14.928Z,14.30
2017-10-14T11:43:43.242Z,14.10
2017-10-14T11:46:12.279Z,14.23
2017-10-14T11:48:40.571Z,11.43
2017-10-14T11:51:08.833Z,10.40
2017-10-14T11:53:37.139Z,13.30
2017-10-14T11:56:05.414Z,13.33
2017-10-14T11:58:33.705Z,14.33
2017-10-14T12:01:01.984Z,11.97
2017-10-14T12:03:30.269Z,11.10
2017-10-14T12:05:59.293Z,12.40
2017-10-14T12:08:27.612Z,11.10
2017-10-14T12:10:56.197Z,11.00
2017-10-14T12:13:24.505Z,13.60
2017-10-14T12:15:53.542Z,11.97
2017-10-14T12:18:21.973Z,11.07
2017-10-14T12:20:50.242Z,10.27
2017-10-14T12:23:18.525Z,10.53
2017-10-14T12:25:46.818Z,10.73
2017-10-14T12:28:15.179Z,10.37
2017-10-14T12:30:43.464Z,10.47
2017-10-14T12:33:11.840Z,10.50
2017-10-14T12:35:40.120Z,9.10
2017-10-14T12:38:08.493Z,11.23
2017-10-14T12:40:36.879Z,11.77
2017-10-14T12:43:05.145Z,11.50
2017-10-14T12:45:33.444Z,11.03
2017-10-14T12:48:01.767Z,9.83
2017-10-14T12:50:30.027Z,10.60
2017-10-14T12:52:58.327Z,11.37
2017-10-14T12:55:26.657Z,10.20
2017-10-14T12:57:55.704Z,9.57
2017-10-14T13:00:23.965Z,9.57
2017-10-14T13:02:52.282Z,10.37
2017-10-14T13:05:20.544Z,11.87
2017-10-14T13:07:48.832Z,10.93
2017-10-14T13:10:17.127Z,10.20
2017-10-14T13:12:45.409Z,10.53
2017-10-14T13:15:13.684Z,10.80
2017-10-14T13:17:41.995Z,9.60
2017-10-14T13:20:10.288Z,11.80
2017-10-14T13:22:38.578Z,12.60
2017-10-14T13:25:06.849Z,9.53
2017-10-14T13:27:35.253Z,11.97
2017-10-14T13:30:03.570Z,10.50
2017-10-14T13:32:31.852Z,11.83
2017-10-14T13:35:00.129Z,10.60
2017-10-14T13:37:28.423Z,11.93
2017-10-14T13:39:56.815Z,13.33
2017-10-14T13:42:25.260Z,11.40
2017-10-14T13:44:54.280Z,9.20
2017-10-14T13:47:22.565Z,12.73
2017-10-14T13:49:50.882Z,8.83
2017-10-14T13:52:19.942Z,11.70
2017-10-14T13:54:48.209Z,10.47
2017-10-14T13:57:16.535Z,10.37
2017-10-14T13:59:44.804Z,10.40
2017-10-14T14:02:13.090Z,10.90
2017-10-14T14:04:41.362Z,13.70
2017-10-14T14:07:09.681Z,11.23
2017-10-14T14:09:37.962Z,10.73
2017-10-14T14:12:06.239Z,9.20
2017-10-14T14:14:34.517Z,8.63
2017-10-14T14:17:02.781Z,10.97
2017-10-14T14:19:31.064Z,9.23
2017-10-14T14:21:59.331Z,9.27
2017-10-14T14:24:27.621Z,9.13
2017-10-14T14:26:55.889Z,9.60
2017-10-14T14:29:24.176Z,10.23
2017-10-14T14:31:52.449Z,10.80
2017-10-14T14:34:20.753Z,11.87
2017-10-14T14:36:49.038Z,11.23
2017-10-14T14:39:17.427Z,11.57
2017-10-14T14:41:45.682Z,9.50
2017-10-14T14:44:13.983Z,12.77
2017-10-14T14:46:42.254Z,10.17
2017-10-14T14:49:10.555Z,11.13
2017-10-14T14:51:38.828Z,9.90
2017-10-14T14:54:07.227Z,11.00
2017-10-14T14:56:37.014Z,9.30
2017-10-14T14:59:05.431Z,10.57
2017-10-14T15:01:33.733Z,12.33
2017-10-14T15:04:02.029Z,10.43
2017-10-14T15:06:30.302Z,10.40
2017-10-14T15:08:58.603Z,9.90
2017-10-14T15:11:26.853Z,12.43
2017-10-14T15:13:55.140Z,9.53
2017-10-14T15:16:23.431Z,12.53
2017-10-14T15:18:51.713Z,11.70
2017-10-14T15:21:19.985Z,12.60
2017-10-14T15:23:49.041Z,11.97
2017-10-14T15:26:17.355Z,14.60
2017-10-14T15:28:45.657Z,12.50
2017-10-14T15:31:13.993Z,13.87
2017-10-14T15:33:42.287Z,13.23
2017-10-14T15:36:10.677Z,13.90
2017-10-14T15:38:38.986Z,12.30
2017-10-14T15:41:07.338Z,17.60
2017-10-14T15:43:35.721Z,13.63
2017-10-14T15:46:04.798Z,12.60
2017-10-14T15:48:33.077Z,13.90
2017-10-14T15:51:01.369Z,13.73
2017-10-14T15:53:29.633Z,11.00
2017-10-14T15:55:58.701Z,16.07
2017-10-14T15:58:26.993Z,13.63
2017-10-14T16:00:56.066Z,11.77
2017-10-14T16:03:24.353Z,13.30
2017-10-14T16:05:52.682Z,13.60
2017-10-14T16:08:21.740Z,12.60
2017-10-14T16:10:50.024Z,12.87
2017-10-14T16:13:19.088Z,14.57
2017-10-14T16:15:47.402Z,11.17
2017-10-14T16:18:15.720Z,15.23
2017-10-14T16:20:44.018Z,14.30
2017-10-14T16:23:13.080Z,18.43
2017-10-14T16:25:41.413Z,12.63
2017-10-14T16:28:10.463Z,13.37
2017-10-14T16:30:39.436Z,13.93
2017-10-14T16:33:07.741Z,12.63
2017-10-14T16:35:36.062Z,11.50
2017-10-14T16:38:05.942Z,14.20
2017-10-14T16:40:35.057Z,14.90
2017-10-14T16:43:03.344Z,14.57
2017-10-14T16:45:31.641Z,12.10
2017-10-14T16:47:59.959Z,17.23
2017-10-14T16:50:28.228Z,13.03
2017-10-14T16:52:56.572Z,15.63
2017-10-14T16:55:24.850Z,15.33
2017-10-14T16:57:53.191Z,12.03
2017-10-14T17:00:22.778Z,14.70
2017-10-14T17:02:51.080Z,13.37
2017-10-14T17:05:19.468Z,11.90
2017-10-14T17:07:47.873Z,13.23
2017-10-14T17:10:16.981Z,13.87
2017-10-14T17:12:46.052Z,15.63
2017-10-14T17:15:14.407Z,17.20
2017-10-14T17:17:42.693Z,15.10
2017-10-14T17:20:11.073Z,13.27
2017-10-14T17:22:39.449Z,17.43
2017-10-14T17:25:07.729Z,14.93
2017-10-14T17:27:36.028Z,14.30
2017-10-14T17:30:04.308Z,17.90
2017-10-14T17:32:32.941Z,14.50
2017-10-14T17:35:01.307Z,14.53
2017-10-14T17:37:29.581Z,15.67
2017-10-14T17:39:57.894Z,18.20
2017-10-14T17:42:26.153Z,12.97
2017-10-14T17:44:55.225Z,17.50
2017-10-14T17:47:23.560Z,16.67
2017-10-14T17:49:52.037Z,20.57
2017-10-14T17:52:21.221Z,21.73
2017-10-14T17:54:50.329Z,18.77
2017-10-14T17:57:18.609Z,21.53
2017-10-14T17:59:46.977Z,21.37
2017-10-14T18:02:15.353Z,22.37
2017-10-14T18:04:43.652Z,17.73
2017-10-14T18:07:12.017Z,19.80
2017-10-14T18:09:40.335Z,22.10
2017-10-14T18:12:09.388Z,20.87
2017-10-14T18:14:37.678Z,21.10
2017-10-14T18:17:05.954Z,18.30
2017-10-14T18:19:34.351Z,19.50
2017-10-14T18:22:03.385Z,19.27
2017-10-14T18:24:31.719Z,18.43
2017-10-14T18:27:00.001Z,21.03
2017-10-14T18:29:28.449Z,18.40
2017-10-14T18:31:56.769Z,21.03
2017-10-14T18:34:25.115Z,24.00
2017-10-14T18:36:53.437Z,19.73
2017-10-14T18:39:22.487Z,23.90
2017-10-14T18:41:50.764Z,20.13
2017-10-14T18:44:19.158Z,22.47
2017-10-14T18:46:47.441Z,24.20
2017-10-14T18:49:15.821Z,21.90
2017-10-14T18:51:44.097Z,21.20
2017-10-14T18:54:12.393Z,21.83
2017-10-14T18:56:41.471Z,24.63
2017-10-14T18:59:09.839Z,21.23
2017-10-14T19:01:38.210Z,21.77
2017-10-14T19:04:06.497Z,27.77
2017-10-14T19:06:34.782Z,24.17
2017-10-14T19:09:03.092Z,28.40
2017-10-14T19:11:31.381Z,26.13
2017-10-14T19:13:59.685Z,25.47
2017-10-14T19:16:27.996Z,20.17
2017-10-14T19:18:57.066Z,21.40
2017-10-14T19:21:25.497Z,22.13
2017-10-14T19:23:54.548Z,24.27
2017-10-14T19:26:22.850Z,19.03
2017-10-14T19:28:51.885Z,21.07
2017-10-14T19:31:20.205Z,18.10
2017-10-14T19:33:48.492Z,21.60
2017-10-14T19:36:16.820Z,19.80
2017-10-14T19:38:45.172Z,17.63
2017-10-14T19:41:14.129Z,21.17
2017-10-14T19:43:42.407Z,15.33
2017-10-14T19:46:10.714Z,22.67
2017-10-14T19:48:38.973Z,16.97
2017-10-14T19:51:07.274Z,18.97
2017-10-14T19:53:36.324Z,18.43
2017-10-14T19:56:04.609Z,16.93
2017-10-14T19:58:32.885Z,16.50
2017-10-14T20:01:01.185Z,16.67
2017-10-14T20:03:30.217Z,14.83
2017-10-14T20:05:58.540Z,14.20
2017-10-14T20:08:26.815Z,16.03
2017-10-14T20:10:55.108Z,16.33
2017-10-14T20:13:23.385Z,18.97
2017-10-14T20:15:51.685Z,13.37
2017-10-14T20:18:20.732Z,12.90
2017-10-14T20:20:49.115Z,14.87
2017-10-14T20:23:18.169Z,15.30
2017-10-14T20:25:46.489Z,11.67
2017-10-14T20:28:15.274Z,11.90
2017-10-14T20:30:43.568Z,13.43
2017-10-14T20:33:11.830Z,12.40
2017-10-14T20:35:40.134Z,11.53
2017-10-14T20:38:08.436Z,12.73
2017-10-14T20:40:36.741Z,11.33
2017-10-14T20:43:05.022Z,11.17
2017-10-14T20:45:33.345Z,15.23
2017-10-14T20:48:01.630Z,11.50
2017-10-14T20:50:30.039Z,12.70
2017-10-14T20:52:58.358Z,11.67
2017-10-14T20:55:26.719Z,12.50
2017-10-14T20:57:55.960Z,12.73
2017-10-14T21:00:24.385Z,11.97
2017-10-14T21:02:52.700Z,13.23
2017-10-14T21:05:20.974Z,15.63
2017-10-14T21:07:50.060Z,13.13
2017-10-14T21:10:18.346Z,15.10
2017-10-14T21:12:46.677Z,13.07
2017-10-14T21:15:15.564Z,14.80
2017-10-14T21:17:43.885Z,15.10
2017-10-14T21:20:13.302Z,13.30
2017-10-14T21:22:42.386Z,13.80
2017-10-14T21:25:10.725Z,15.40
2017-10-14T21:27:39.056Z,15.00
2017-10-14T21:30:08.110Z,16.77
2017-10-14T21:32:36.511Z,14.67
2017-10-14T21:35:06.133Z,20.03
2017-10-14T21:37:34.478Z,22.97
2017-10-14T21:40:02.861Z,19.97
2017-10-14T21:42:34.462Z,19.10
2017-10-14T21:45:02.871Z,19.20
2017-10-14T21:47:32.077Z,18.50
2017-10-14T21:50:01.487Z,20.40
2017-10-14T21:52:29.861Z,18.40
2017-10-14T21:54:58.182Z,20.77
2017-10-14T21:57:26.503Z,17.30
2017-10-14T21:59:56.105Z,22.17
2017-10-14T22:02:24.424Z,19.40
2017-10-14T22:04:52.690Z,19.17
2017-10-14T22:07:21.791Z,20.87
2017-10-14T22:09:50.834Z,18.70
2017-10-14T22:12:19.124Z,21.67
2017-10-14T22:14:47.450Z,19.43
2017-10-14T22:17:15.724Z,21.13
2017-10-14T22:19:44.107Z,20.97
2017-10-14T22:22:12.440Z,16.27
2017-10-14T22:24:40.820Z,18.17
2017-10-14T22:27:09.105Z,19.50
2017-10-14T22:29:37.476Z,21.53
2017-10-14T22:32:05.854Z,20.90
2017-10-14T22:34:34.136Z,20.17
2017-10-14T22:37:02.448Z,22.67
2017-10-14T22:39:31.505Z,18.57
2017-10-14T22:41:59.781Z,17.13
2017-10-14T22:44:28.097Z,21.40
2017-10-14T22:46:57.150Z,18.10
2017-10-14T22:49:25.434Z,17.77
2017-10-14T22:51:53.742Z,23.53
2017-10-14T22:54:22.789Z,20.47
2017-10-14T22:56:51.182Z,18.57
2017-10-14T22:59:19.486Z,21.03
2017-10-14T23:01:48.566Z,17.47
2017-10-14T23:04:16.853Z,16.23
2017-10-14T23:06:45.170Z,20.20
2017-10-14T23:09:13.435Z,18.00
2017-10-14T23:11:41.705Z,15.80
2017-10-14T23:14:10.868Z,15.57
2017-10-14T23:16:39.132Z,20.27
2017-10-14T23:19:07.410Z,19.90
2017-10-14T23:21:35.709Z,18.20
2017-10-14T23:24:04.071Z,17.83
2017-10-14T23:26:32.343Z,22.40
2017-10-14T23:29:00.732Z,17.03
2017-10-14T23:31:29.001Z,20.60
2017-10-14T23:33:57.281Z,22.47
2017-10-14T23:36:25.669Z,19.43
2017-10-14T23:38:53.937Z,21.53
2017-10-14T23:41:22.214Z,22.27
2017-10-14T23:43:50.590Z,24.00
2017-10-14T23:46:18.870Z,24.63
2017-10-14T23:48:47.152Z,21.50
2017-10-14T23:51:15.445Z,21.93
2017-10-14T23:53:43.713Z,20.87
2017-10-14T23:56:12.081Z,18.47
2017-10-14T23:58:40.385Z,22.13
